Архив погоды в Миллерово

Метеограмма Миллерово
Среда, 25 Апреля
Время местн. Темп Ветер Видим Явления Облачность нижн/средн/верх Атм. давл. Влжн Точка росы ВНГО R Сост. почвы Tg s
Напр Скр Прв ур.ст ур.м изм
12:00 +14.3° Ю 2 - 10 км - облачно 747 760 -0.2 75% +9.9° 1 км - - - -
09:00 +10.2° В 1 - 10 км - облачно 747 761 +0.3 94% +9.2° 600 м - - - -
06:00 +7.8° В,Ю-В 3 - 10 км - облачно 747 761 -0.1 89% +6.1° 600 м - Влажная (без луж) - -
03:00 +7.8° В 3 - 10 км небо без изменений {ливневые осадки} облачно 747 761 -0.9 94% +6.9° 300 м - - - -
00:00 +8° С-В 1 - 10 км слабый ливневый дождь облачно 747 762 -0.5 93% +6.9° 300 м - - - -
Вторник, 24 Апреля
Время местн. Темп Ветер Видим Явления Облачность нижн/средн/верх Атм. давл. Влжн Точка росы ВНГО R Сост. почвы Tg s
Напр Скр Прв ур.ст ур.м изм
21:00 +12.8° З 2 - 10 км - облачно с прояснениями 748 762 +0.2 33% -3.1° - - - - -
18:00 +14.5° З 2 - 10 км - преимущественно облачно 748 762 -1.3 24% -5.9° - - - - -
15:00 +14.2° З 4 - 10 км - преимущественно облачно 749 763 -1.2 22% -7.3° более 2.5 км - - - -
12:00 +11.2° З 4 - 10 км - переменная облачность 750 764 -0.5 27% -7.3° более 2.5 км - - - -
09:00 +7.3° З 3 - 10 км - ясно 751 765 +0.5 38% -6.1° более 2.5 км - - - -
06:00 -2.2° штиль 0 - 10 км - ясно 750 765 +0.6 77% -5.7° более 2.5 км - Замерзшая - -
03:00 -3.2° штиль 0 - 10 км - ясно 750 765 +0.6 85% -5.4° более 2.5 км - - - -
00:00 -1.3° штиль 0 - 10 км - ясно 749 764 +0.6 64% -7.2° более 2.5 км - - - -
Понедельник, 23 Апреля
Время местн. Темп Ветер Видим Явления Облачность нижн/средн/верх Атм. давл. Влжн Точка росы ВНГО R Сост. почвы Tg s
Напр Скр Прв ур.ст ур.м изм
21:00 +1.6° С 2 - 10 км - ясно 748 763 +1.8 52% -7.2° более 2.5 км - - - -
18:00 +7.5° С-З 5 - 10 км - переменная облачность 747 761 +1 33% -7.8° 1 км - - - -
15:00 +8.5° С-З 6 10 10 км - преимущественно облачно 746 760 +0.6 36% -5.7° 1 км - - - -
12:00 +8.3° С-З 5 - 10 км - преимущественно облачно 745 759 +0.8 44% -3.3° 1 км - - - -
09:00 +4.8° С,С-В 4 - 10 км - облачно 744 759 +1.6 70% -0.1° 1 км - - - -
06:00 +2.3° З 2 - 10 км - переменная облачность 743 757 +0.8 96% +1.7° более 2.5 км 0 Сухая (без трещин) -
03:00 +2.8° З 1 - 10 км - ясно 742 756 +0.7 92% +1.7° более 2.5 км - - - -
00:00 +5.4° З 1 - 10 км - ясно 741 756 +0.7 82% +2.6° более 2.5 км - - - -
Воскресенье, 22 Апреля
Время местн. Темп Ветер Видим Явления Облачность нижн/средн/верх Атм. давл. Влжн Точка росы ВНГО R Сост. почвы Tg s
Напр Скр Прв ур.ст ур.м изм
21:00 +9.8° С,С-З 3 - 10 км - переменная облачность 741 755 +1.8 43% -2.3° 1 км - - - -
18:00 +13.6° С-З 5 - 10 км - преимущественно облачно 739 753 0 38% -0.5° 1 км - - - -
15:00 +15.6° З 6 10 10 км - преимущественно облачно 739 752 0 29% -2.3° 1 км - - - -
12:00 +15.5° З,С-З 7 11 10 км - переменная облачность 739 752 +0.5 33% -0.6° 1 км - - - -
09:00 +12.8° З,С-З 7 10 10 км небо без изменений {ливневые осадки} ясно 738 752 +1.3 49% +2.3° более 2.5 км - - - -